sensor_id;sensor_type;location;lat;lon;timestamp;temperature;humidity
70475;DHT22;57944;48.722;9.316;2023-03-01T00:01:26;-2.00;99.90
70475;DHT22;57944;48.722;9.316;2023-03-01T00:04:00;-2.00;99.90
70475;DHT22;57944;48.722;9.316;2023-03-01T00:06:30;-2.00;99.90
70475;DHT22;57944;48.722;9.316;2023-03-01T00:09:00;-2.00;99.90
70475;DHT22;57944;48.722;9.316;2023-03-01T00:11:32;-1.70;99.90
70475;DHT22;57944;48.722;9.316;2023-03-01T00:14:03;-1.90;99.90
70475;DHT22;57944;48.722;9.316;2023-03-01T00:16:35;-1.80;99.90
70475;DHT22;57944;48.722;9.316;2023-03-01T00:19:13;-1.70;99.90
70475;DHT22;57944;48.722;9.316;2023-03-01T00:21:45;-1.70;99.90
70475;DHT22;57944;48.722;9.316;2023-03-01T00:24:15;-1.40;99.90
70475;DHT22;57944;48.722;9.316;2023-03-01T00:26:45;-1.50;99.90
70475;DHT22;57944;48.722;9.316;2023-03-01T00:29:16;-1.60;99.90
70475;DHT22;57944;48.722;9.316;2023-03-01T00:31:46;-1.70;99.90
70475;DHT22;57944;48.722;9.316;2023-03-01T00:34:19;-1.60;99.90
70475;DHT22;57944;48.722;9.316;2023-03-01T00:36:49;-1.50;99.90
70475;DHT22;57944;48.722;9.316;2023-03-01T00:39:19;-1.70;99.90
70475;DHT22;57944;48.722;9.316;2023-03-01T00:41:49;-1.80;99.90
70475;DHT22;57944;48.722;9.316;2023-03-01T00:44:19;-1.90;99.90
70475;DHT22;57944;48.722;9.316;2023-03-01T00:46:49;-2.10;99.90
70475;DHT22;57944;48.722;9.316;2023-03-01T00:49:22;-2.10;99.90
70475;DHT22;57944;48.722;9.316;2023-03-01T00:51:55;-2.30;99.90
70475;DHT22;57944;48.722;9.316;2023-03-01T00:54:25;-2.40;99.90
70475;DHT22;57944;48.722;9.316;2023-03-01T00:56:56;-2.40;99.90
70475;DHT22;57944;48.722;9.316;2023-03-01T00:59:26;-2.70;99.90
70475;DHT22;57944;48.722;9.316;2023-03-01T01:01:56;-2.40;99.90
70475;DHT22;57944;48.722;9.316;2023-03-01T01:04:28;-2.40;99.90
70475;DHT22;57944;48.722;9.316;2023-03-01T01:06:58;-2.60;99.90
70475;DHT22;57944;48.722;9.316;2023-03-01T01:09:28;-2.50;99.90
70475;DHT22;57944;48.722;9.316;2023-03-01T01:11:58;-2.50;99.90
70475;DHT22;57944;48.722;9.316;2023-03-01T01:14:28;-2.70;99.90
70475;DHT22;57944;48.722;9.316;2023-03-01T01:16:59;-2.80;99.90
70475;DHT22;57944;48.722;9.316;2023-03-01T01:19:31;-2.60;99.90
70475;DHT22;57944;48.722;9.316;2023-03-01T01:22:02;-2.30;99.90
70475;DHT22;57944;48.722;9.316;2023-03-01T01:24:32;-2.10;99.90
70475;DHT22;57944;48.722;9.316;2023-03-01T01:27:03;-1.70;99.90
70475;DHT22;57944;48.722;9.316;2023-03-01T01:29:34;-1.70;99.90
70475;DHT22;57944;48.722;9.316;2023-03-01T01:32:05;-1.80;99.90
70475;DHT22;57944;48.722;9.316;2023-03-01T01:34:37;-1.70;99.90
70475;DHT22;57944;48.722;9.316;2023-03-01T01:37:08;-1.80;99.90
70475;DHT22;57944;48.722;9.316;2023-03-01T01:39:38;-1.90;99.90
70475;DHT22;57944;48.722;9.316;2023-03-01T01:42:13;-1.50;99.90
70475;DHT22;57944;48.722;9.316;2023-03-01T01:44:46;-1.40;99.90
70475;DHT22;57944;48.722;9.316;2023-03-01T01:47:20;-1.10;99.90
70475;DHT22;57944;48.722;9.316;2023-03-01T01:49:56;-1.00;99.90
70475;DHT22;57944;48.722;9.316;2023-03-01T01:52:29;-0.90;99.90
70475;DHT22;57944;48.722;9.316;2023-03-01T01:55:07;-0.70;99.90
70475;DHT22;57944;48.722;9.316;2023-03-01T01:57:45;-0.60;99.90
70475;DHT22;57944;48.722;9.316;2023-03-01T02:00:20;-0.40;99.90
70475;DHT22;57944;48.722;9.316;2023-03-01T02:02:55;-0.30;99.90
70475;DHT22;57944;48.722;9.316;2023-03-01T02:05:38;0.10;99.90
70475;DHT22;57944;48.722;9.316;2023-03-01T02:08:24;0.00;99.90
70475;DHT22;57944;48.722;9.316;2023-03-01T02:10:58;0.10;99.90
70475;DHT22;57944;48.722;9.316;2023-03-01T02:13:31;0.30;99.90
70475;DHT22;57944;48.722;9.316;2023-03-01T02:16:03;0.50;99.90
70475;DHT22;57944;48.722;9.316;2023-03-01T02:18:34;0.40;99.90
70475;DHT22;57944;48.722;9.316;2023-03-01T02:21:17;0.60;99.90
70475;DHT22;57944;48.722;9.316;2023-03-01T02:23:58;0.70;99.90
70475;DHT22;57944;48.722;9.316;2023-03-01T02:26:41;0.80;99.90
70475;DHT22;57944;48.722;9.316;2023-03-01T02:29:19;0.50;99.90
70475;DHT22;57944;48.722;9.316;2023-03-01T02:31:51;0.40;99.90
70475;DHT22;57944;48.722;9.316;2023-03-01T02:34:26;0.40;99.90
70475;DHT22;57944;48.722;9.316;2023-03-01T02:37:00;0.40;99.90
70475;DHT22;57944;48.722;9.316;2023-03-01T02:39:36;0.10;99.90
70475;DHT22;57944;48.722;9.316;2023-03-01T02:42:12;0.00;99.90
70475;DHT22;57944;48.722;9.316;2023-03-01T02:44:49;0.00;99.90
70475;DHT22;57944;48.722;9.316;2023-03-01T02:47:20;0.30;99.90
70475;DHT22;57944;48.722;9.316;2023-03-01T02:49:50;0.30;99.90
70475;DHT22;57944;48.722;9.316;2023-03-01T02:52:34;0.40;99.90
70475;DHT22;57944;48.722;9.316;2023-03-01T02:55:17;0.70;99.90
70475;DHT22;57944;48.722;9.316;2023-03-01T02:57:48;0.60;99.90
70475;DHT22;57944;48.722;9.316;2023-03-01T03:00:24;0.90;99.90
70475;DHT22;57944;48.722;9.316;2023-03-01T03:02:58;0.90;99.90
70475;DHT22;57944;48.722;9.316;2023-03-01T03:05:29;0.80;99.90
70475;DHT22;57944;48.722;9.316;2023-03-01T03:08:02;0.80;99.90
70475;DHT22;57944;48.722;9.316;2023-03-01T03:10:38;0.90;99.90
70475;DHT22;57944;48.722;9.316;2023-03-01T03:13:12;0.70;99.90
70475;DHT22;57944;48.722;9.316;2023-03-01T03:15:46;0.70;99.90
70475;DHT22;57944;48.722;9.316;2023-03-01T03:18:17;0.70;99.90
70475;DHT22;57944;48.722;9.316;2023-03-01T03:20:47;0.80;99.90
70475;DHT22;57944;48.722;9.316;2023-03-01T03:23:20;0.60;99.90
70475;DHT22;57944;48.722;9.316;2023-03-01T03:25:50;0.60;99.90
70475;DHT22;57944;48.722;9.316;2023-03-01T03:28:35;0.70;99.90
70475;DHT22;57944;48.722;9.316;2023-03-01T03:31:09;0.70;99.90
70475;DHT22;57944;48.722;9.316;2023-03-01T03:33:39;0.70;99.90
70475;DHT22;57944;48.722;9.316;2023-03-01T03:36:09;0.60;99.90
70475;DHT22;57944;48.722;9.316;2023-03-01T03:38:39;0.70;99.90
70475;DHT22;57944;48.722;9.316;2023-03-01T03:41:09;0.80;99.90
70475;DHT22;57944;48.722;9.316;2023-03-01T03:43:41;0.80;99.90
70475;DHT22;57944;48.722;9.316;2023-03-01T03:46:14;0.70;99.90
70475;DHT22;57944;48.722;9.316;2023-03-01T03:48:45;0.70;99.90
70475;DHT22;57944;48.722;9.316;2023-03-01T03:51:18;0.80;99.90
70475;DHT22;57944;48.722;9.316;2023-03-01T03:53:49;0.60;99.90
70475;DHT22;57944;48.722;9.316;2023-03-01T03:56:19;0.70;99.90
70475;DHT22;57944;48.722;9.316;2023-03-01T03:58:54;0.70;99.90
70475;DHT22;57944;48.722;9.316;2023-03-01T04:01:27;0.90;99.90
70475;DHT22;57944;48.722;9.316;2023-03-01T04:03:57;1.00;99.90
70475;DHT22;57944;48.722;9.316;2023-03-01T04:06:31;1.00;99.90
70475;DHT22;57944;48.722;9.316;2023-03-01T04:09:01;1.10;99.90
70475;DHT22;57944;48.722;9.316;2023-03-01T04:11:31;1.10;99.90
70475;DHT22;57944;48.722;9.316;2023-03-01T04:14:01;1.00;99.90
70475;DHT22;57944;48.722;9.316;2023-03-01T04:16:34;0.90;99.90
70475;DHT22;57944;48.722;9.316;2023-03-01T04:19:04;0.80;99.90
70475;DHT22;57944;48.722;9.316;2023-03-01T04:21:36;0.70;99.90
70475;DHT22;57944;48.722;9.316;2023-03-01T04:24:07;0.50;99.90
70475;DHT22;57944;48.722;9.316;2023-03-01T04:26:37;0.50;99.90
70475;DHT22;57944;48.722;9.316;2023-03-01T04:29:07;0.60;99.90
70475;DHT22;57944;48.722;9.316;2023-03-01T04:31:39;0.70;99.90
70475;DHT22;57944;48.722;9.316;2023-03-01T04:34:10;0.70;99.90
70475;DHT22;57944;48.722;9.316;2023-03-01T04:36:40;0.60;99.90
70475;DHT22;57944;48.722;9.316;2023-03-01T04:39:11;0.70;99.90
70475;DHT22;57944;48.722;9.316;2023-03-01T04:41:41;0.60;99.90
70475;DHT22;57944;48.722;9.316;2023-03-01T04:44:12;0.60;99.90
70475;DHT22;57944;48.722;9.316;2023-03-01T04:46:45;0.60;99.90
70475;DHT22;57944;48.722;9.316;2023-03-01T04:49:18;0.60;99.90
70475;DHT22;57944;48.722;9.316;2023-03-01T04:51:48;0.70;99.90
70475;DHT22;57944;48.722;9.316;2023-03-01T04:54:18;0.80;99.90
70475;DHT22;57944;48.722;9.316;2023-03-01T04:56:48;1.00;99.90
70475;DHT22;57944;48.722;9.316;2023-03-01T04:59:18;1.00;99.90
70475;DHT22;57944;48.722;9.316;2023-03-01T05:01:52;0.90;99.90
70475;DHT22;57944;48.722;9.316;2023-03-01T05:04:24;0.90;99.90
70475;DHT22;57944;48.722;9.316;2023-03-01T05:06:55;0.80;99.90
70475;DHT22;57944;48.722;9.316;2023-03-01T05:09:25;0.70;99.90
70475;DHT22;57944;48.722;9.316;2023-03-01T05:11:55;0.70;99.90
70475;DHT22;57944;48.722;9.316;2023-03-01T05:14:25;0.60;99.90
70475;DHT22;57944;48.722;9.316;2023-03-01T05:16:58;0.60;99.90
70475;DHT22;57944;48.722;9.316;2023-03-01T05:19:30;0.50;99.90
70475;DHT22;57944;48.722;9.316;2023-03-01T05:22:01;0.50;99.90
70475;DHT22;57944;48.722;9.316;2023-03-01T05:24:32;0.40;99.90
70475;DHT22;57944;48.722;9.316;2023-03-01T05:27:05;0.40;99.90
70475;DHT22;57944;48.722;9.316;2023-03-01T05:29:35;0.40;99.90
70475;DHT22;57944;48.722;9.316;2023-03-01T05:32:09;0.60;99.90
70475;DHT22;57944;48.722;9.316;2023-03-01T05:34:42;0.70;99.90
70475;DHT22;57944;48.722;9.316;2023-03-01T05:37:13;0.50;99.90
70475;DHT22;57944;48.722;9.316;2023-03-01T05:39:44;0.50;99.90
70475;DHT22;57944;48.722;9.316;2023-03-01T05:42:16;0.60;99.90
70475;DHT22;57944;48.722;9.316;2023-03-01T05:44:46;0.70;99.90
70475;DHT22;57944;48.722;9.316;2023-03-01T05:47:19;0.50;99.90
70475;DHT22;57944;48.722;9.316;2023-03-01T05:49:49;0.40;99.90
70475;DHT22;57944;48.722;9.316;2023-03-01T05:52:19;0.40;99.90
70475;DHT22;57944;48.722;9.316;2023-03-01T05:54:49;0.20;99.90
70475;DHT22;57944;48.722;9.316;2023-03-01T05:57:19;0.10;99.90
70475;DHT22;57944;48.722;9.316;2023-03-01T05:59:49;0.10;99.90
70475;DHT22;57944;48.722;9.316;2023-03-01T06:02:21;0.10;99.90
70475;DHT22;57944;48.722;9.316;2023-03-01T06:04:52;0.00;99.90
70475;DHT22;57944;48.722;9.316;2023-03-01T06:07:22;0.10;99.90
70475;DHT22;57944;48.722;9.316;2023-03-01T06:09:51;0.30;99.90
70475;DHT22;57944;48.722;9.316;2023-03-01T06:12:22;0.30;99.90
70475;DHT22;57944;48.722;9.316;2023-03-01T06:14:52;0.30;99.90
70475;DHT22;57944;48.722;9.316;2023-03-01T06:17:24;0.20;99.90
70475;DHT22;57944;48.722;9.316;2023-03-01T06:19:54;0.20;99.90
70475;DHT22;57944;48.722;9.316;2023-03-01T06:22:24;0.20;99.90
70475;DHT22;57944;48.722;9.316;2023-03-01T06:24:54;0.20;99.90
70475;DHT22;57944;48.722;9.316;2023-03-01T06:27:24;0.20;99.90
70475;DHT22;57944;48.722;9.316;2023-03-01T06:29:55;0.30;99.90
70475;DHT22;57944;48.722;9.316;2023-03-01T06:32:27;0.40;99.90
70475;DHT22;57944;48.722;9.316;2023-03-01T06:34:58;0.30;99.90
70475;DHT22;57944;48.722;9.316;2023-03-01T06:37:28;0.30;99.90
70475;DHT22;57944;48.722;9.316;2023-03-01T06:39:58;0.30;99.90
70475;DHT22;57944;48.722;9.316;2023-03-01T06:42:31;0.60;99.90
70475;DHT22;57944;48.722;9.316;2023-03-01T06:45:02;0.50;99.90
70475;DHT22;57944;48.722;9.316;2023-03-01T06:47:35;0.50;99.90
70475;DHT22;57944;48.722;9.316;2023-03-01T06:50:08;0.60;99.90
70475;DHT22;57944;48.722;9.316;2023-03-01T06:52:40;0.70;99.90
70475;DHT22;57944;48.722;9.316;2023-03-01T06:55:12;1.30;99.90
70475;DHT22;57944;48.722;9.316;2023-03-01T06:57:42;1.70;99.90
70475;DHT22;57944;48.722;9.316;2023-03-01T07:00:14;2.10;99.90
70475;DHT22;57944;48.722;9.316;2023-03-01T07:02:47;2.70;99.90
70475;DHT22;57944;48.722;9.316;2023-03-01T07:05:17;3.00;99.90
70475;DHT22;57944;48.722;9.316;2023-03-01T07:07:47;3.50;99.90
70475;DHT22;57944;48.722;9.316;2023-03-01T07:10:17;3.40;99.90
70475;DHT22;57944;48.722;9.316;2023-03-01T07:12:48;3.60;99.90
70475;DHT22;57944;48.722;9.316;2023-03-01T07:15:18;3.70;99.90
70475;DHT22;57944;48.722;9.316;2023-03-01T07:17:51;4.10;99.90
70475;DHT22;57944;48.722;9.316;2023-03-01T07:20:21;4.50;99.90
70475;DHT22;57944;48.722;9.316;2023-03-01T07:22:53;4.40;99.90
70475;DHT22;57944;48.722;9.316;2023-03-01T07:25:25;4.40;99.90
70475;DHT22;57944;48.722;9.316;2023-03-01T07:27:55;5.10;99.90
70475;DHT22;57944;48.722;9.316;2023-03-01T07:30:25;5.60;99.90
70475;DHT22;57944;48.722;9.316;2023-03-01T07:32:58;6.10;99.90
70475;DHT22;57944;48.722;9.316;2023-03-01T07:35:28;6.50;99.90
70475;DHT22;57944;48.722;9.316;2023-03-01T07:38:00;6.90;99.90
70475;DHT22;57944;48.722;9.316;2023-03-01T07:40:30;7.40;98.70
70475;DHT22;57944;48.722;9.316;2023-03-01T07:43:00;7.30;98.10
70475;DHT22;57944;48.722;9.316;2023-03-01T07:45:30;7.20;97.70
70475;DHT22;57944;48.722;9.316;2023-03-01T07:48:03;7.10;97.50
70475;DHT22;57944;48.722;9.316;2023-03-01T07:50:33;7.50;97.90
70475;DHT22;57944;48.722;9.316;2023-03-01T07:53:03;8.00;97.10
70475;DHT22;57944;48.722;9.316;2023-03-01T07:55:33;8.20;98.00
70475;DHT22;57944;48.722;9.316;2023-03-01T07:58:03;7.60;96.20
70475;DHT22;57944;48.722;9.316;2023-03-01T08:00:33;7.80;97.00
70475;DHT22;57944;48.722;9.316;2023-03-01T08:03:06;6.60;96.10
70475;DHT22;57944;48.722;9.316;2023-03-01T08:05:36;5.20;97.40
70475;DHT22;57944;48.722;9.316;2023-03-01T08:08:06;5.00;99.40
70475;DHT22;57944;48.722;9.316;2023-03-01T08:10:36;5.60;99.90
70475;DHT22;57944;48.722;9.316;2023-03-01T08:13:06;6.40;98.40
70475;DHT22;57944;48.722;9.316;2023-03-01T08:15:36;7.50;96.90
70475;DHT22;57944;48.722;9.316;2023-03-01T08:18:09;7.70;95.50
70475;DHT22;57944;48.722;9.316;2023-03-01T08:20:39;8.00;95.00
70475;DHT22;57944;48.722;9.316;2023-03-01T08:23:09;8.30;94.70
70475;DHT22;57944;48.722;9.316;2023-03-01T08:25:39;9.20;93.90
70475;DHT22;57944;48.722;9.316;2023-03-01T08:28:09;9.80;93.10
70475;DHT22;57944;48.722;9.316;2023-03-01T08:30:39;10.30;92.00
70475;DHT22;57944;48.722;9.316;2023-03-01T08:33:12;10.80;90.30
70475;DHT22;57944;48.722;9.316;2023-03-01T08:35:43;9.60;90.70
70475;DHT22;57944;48.722;9.316;2023-03-01T08:38:13;9.70;91.40
70475;DHT22;57944;48.722;9.316;2023-03-01T08:40:43;8.40;91.30
70475;DHT22;57944;48.722;9.316;2023-03-01T08:43:13;6.70;92.80
70475;DHT22;57944;48.722;9.316;2023-03-01T08:45:44;5.50;94.60
70475;DHT22;57944;48.722;9.316;2023-03-01T08:48:17;5.00;95.90
70475;DHT22;57944;48.722;9.316;2023-03-01T08:50:47;4.50;96.80
70475;DHT22;57944;48.722;9.316;2023-03-01T08:53:17;3.90;98.00
70475;DHT22;57944;48.722;9.316;2023-03-01T08:55:47;3.80;98.70
70475;DHT22;57944;48.722;9.316;2023-03-01T08:58:17;3.80;99.20
70475;DHT22;57944;48.722;9.316;2023-03-01T09:00:47;3.70;99.00
70475;DHT22;57944;48.722;9.316;2023-03-01T09:03:19;3.90;99.20
70475;DHT22;57944;48.722;9.316;2023-03-01T09:05:49;4.40;99.60
70475;DHT22;57944;48.722;9.316;2023-03-01T09:08:20;5.70;98.70
70475;DHT22;57944;48.722;9.316;2023-03-01T09:10:50;7.90;96.90
70475;DHT22;57944;48.722;9.316;2023-03-01T09:13:20;10.60;93.70
70475;DHT22;57944;48.722;9.316;2023-03-01T09:15:51;12.20;90.70
70475;DHT22;57944;48.722;9.316;2023-03-01T09:18:24;11.50;85.30
70475;DHT22;57944;48.722;9.316;2023-03-01T09:21:00;10.40;87.30
70475;DHT22;57944;48.722;9.316;2023-03-01T09:23:34;11.30;87.00
70475;DHT22;57944;48.722;9.316;2023-03-01T09:26:06;11.90;85.00
70475;DHT22;57944;48.722;9.316;2023-03-01T09:28:38;12.20;83.40
70475;DHT22;57944;48.722;9.316;2023-03-01T09:31:09;12.50;82.20
70475;DHT22;57944;48.722;9.316;2023-03-01T09:33:45;12.00;81.80
70475;DHT22;57944;48.722;9.316;2023-03-01T09:36:19;12.00;81.30
70475;DHT22;57944;48.722;9.316;2023-03-01T09:38:52;11.60;81.20
70475;DHT22;57944;48.722;9.316;2023-03-01T09:41:42;10.90;81.40
70475;DHT22;57944;48.722;9.316;2023-03-01T09:44:28;10.80;82.70
70475;DHT22;57944;48.722;9.316;2023-03-01T09:47:03;11.50;82.00
70475;DHT22;57944;48.722;9.316;2023-03-01T09:49:39;11.90;80.70
70475;DHT22;57944;48.722;9.316;2023-03-01T09:52:23;12.00;81.80
70475;DHT22;57944;48.722;9.316;2023-03-01T09:54:58;12.80;80.00
70475;DHT22;57944;48.722;9.316;2023-03-01T09:57:33;13.70;79.40
70475;DHT22;57944;48.722;9.316;2023-03-01T10:00:16;16.30;78.00
70475;DHT22;57944;48.722;9.316;2023-03-01T10:02:58;17.30;72.70
70475;DHT22;57944;48.722;9.316;2023-03-01T10:05:43;17.00;70.50
70475;DHT22;57944;48.722;9.316;2023-03-01T10:08:27;16.20;69.30
70475;DHT22;57944;48.722;9.316;2023-03-01T10:11:04;16.40;68.90
70475;DHT22;57944;48.722;9.316;2023-03-01T10:13:47;15.90;67.60
70475;DHT22;57944;48.722;9.316;2023-03-01T10:16:27;14.20;68.70
70475;DHT22;57944;48.722;9.316;2023-03-01T10:19:04;13.80;70.30
70475;DHT22;57944;48.722;9.316;2023-03-01T10:21:44;14.30;72.00
70475;DHT22;57944;48.722;9.316;2023-03-01T10:24:17;14.40;71.30
70475;DHT22;57944;48.722;9.316;2023-03-01T10:26:54;12.70;72.20
70475;DHT22;57944;48.722;9.316;2023-03-01T10:29:30;14.10;73.60
70475;DHT22;57944;48.722;9.316;2023-03-01T10:32:08;15.30;70.60
70475;DHT22;57944;48.722;9.316;2023-03-01T10:34:39;14.20;71.00
70475;DHT22;57944;48.722;9.316;2023-03-01T10:37:15;15.50;70.20
70475;DHT22;57944;48.722;9.316;2023-03-01T10:40:00;14.80;68.50
70475;DHT22;57944;48.722;9.316;2023-03-01T10:42:37;15.10;68.70
70475;DHT22;57944;48.722;9.316;2023-03-01T10:45:17;15.90;69.00
70475;DHT22;57944;48.722;9.316;2023-03-01T10:48:11;15.40;67.20
70475;DHT22;57944;48.722;9.316;2023-03-01T10:50:45;13.60;69.80
70475;DHT22;57944;48.722;9.316;2023-03-01T10:53:25;14.20;69.70
70475;DHT22;57944;48.722;9.316;2023-03-01T10:55:59;14.40;70.50
70475;DHT22;57944;48.722;9.316;2023-03-01T10:58:33;15.00;70.10
70475;DHT22;57944;48.722;9.316;2023-03-01T11:01:05;13.50;69.40
70475;DHT22;57944;48.722;9.316;2023-03-01T11:04:10;13.90;71.00
70475;DHT22;57944;48.722;9.316;2023-03-01T11:06:41;14.30;69.70
70475;DHT22;57944;48.722;9.316;2023-03-01T11:09:20;14.20;70.30
70475;DHT22;57944;48.722;9.316;2023-03-01T11:11:55;14.70;69.40
70475;DHT22;57944;48.722;9.316;2023-03-01T11:14:27;14.80;68.70
70475;DHT22;57944;48.722;9.316;2023-03-01T11:17:04;14.90;69.00
70475;DHT22;57944;48.722;9.316;2023-03-01T11:19:35;14.60;68.50
70475;DHT22;57944;48.722;9.316;2023-03-01T11:22:11;13.50;68.70
70475;DHT22;57944;48.722;9.316;2023-03-01T11:24:50;12.90;69.90
70475;DHT22;57944;48.722;9.316;2023-03-01T11:27:39;12.80;71.40
70475;DHT22;57944;48.722;9.316;2023-03-01T11:30:19;12.10;72.50
70475;DHT22;57944;48.722;9.316;2023-03-01T11:32:58;12.50;72.80
70475;DHT22;57944;48.722;9.316;2023-03-01T11:35:36;12.00;71.50
70475;DHT22;57944;48.722;9.316;2023-03-01T11:38:20;12.50;72.60
70475;DHT22;57944;48.722;9.316;2023-03-01T11:40:59;12.80;71.90
70475;DHT22;57944;48.722;9.316;2023-03-01T11:43:41;13.90;70.80
70475;DHT22;57944;48.722;9.316;2023-03-01T11:46:45;13.90;71.10
70475;DHT22;57944;48.722;9.316;2023-03-01T11:49:45;12.70;70.80
70475;DHT22;57944;48.722;9.316;2023-03-01T11:52:37;11.50;71.90
70475;DHT22;57944;48.722;9.316;2023-03-01T11:55:25;10.70;75.00
70475;DHT22;57944;48.722;9.316;2023-03-01T11:58:29;10.50;74.80
70475;DHT22;57944;48.722;9.316;2023-03-01T12:01:18;10.20;76.10
70475;DHT22;57944;48.722;9.316;2023-03-01T12:07:22;9.00;79.50
70475;DHT22;57944;48.722;9.316;2023-03-01T12:10:19;8.40;80.80
70475;DHT22;57944;48.722;9.316;2023-03-01T12:13:04;7.70;82.40
70475;DHT22;57944;48.722;9.316;2023-03-01T12:15:58;7.20;84.30
70475;DHT22;57944;48.722;9.316;2023-03-01T12:19:18;7.00;85.30
70475;DHT22;57944;48.722;9.316;2023-03-01T12:22:14;6.70;86.70
70475;DHT22;57944;48.722;9.316;2023-03-01T12:25:11;6.50;88.30
70475;DHT22;57944;48.722;9.316;2023-03-01T12:28:04;6.50;88.90
70475;DHT22;57944;48.722;9.316;2023-03-01T12:31:33;6.60;89.20
70475;DHT22;57944;48.722;9.316;2023-03-01T12:34:36;6.70;89.40
70475;DHT22;57944;48.722;9.316;2023-03-01T12:37:34;6.80;90.00
70475;DHT22;57944;48.722;9.316;2023-03-01T12:40:32;6.80;89.90
70475;DHT22;57944;48.722;9.316;2023-03-01T12:43:22;6.80;89.80
70475;DHT22;57944;48.722;9.316;2023-03-01T12:46:13;6.80;89.80
70475;DHT22;57944;48.722;9.316;2023-03-01T12:48:59;6.80;90.50
70475;DHT22;57944;48.722;9.316;2023-03-01T12:51:38;6.70;90.30
70475;DHT22;57944;48.722;9.316;2023-03-01T12:54:15;6.70;90.50
70475;DHT22;57944;48.722;9.316;2023-03-01T12:56:47;6.80;90.50
70475;DHT22;57944;48.722;9.316;2023-03-01T12:59:23;6.70;90.90
70475;DHT22;57944;48.722;9.316;2023-03-01T13:02:12;6.80;90.80
70475;DHT22;57944;48.722;9.316;2023-03-01T13:05:05;6.80;91.40
70475;DHT22;57944;48.722;9.316;2023-03-01T13:07:54;6.90;90.90
70475;DHT22;57944;48.722;9.316;2023-03-01T13:10:33;6.90;91.10
70475;DHT22;57944;48.722;9.316;2023-03-01T13:13:19;6.90;91.20
70475;DHT22;57944;48.722;9.316;2023-03-01T13:15:51;6.90;91.40
70475;DHT22;57944;48.722;9.316;2023-03-01T13:18:31;6.90;91.00
70475;DHT22;57944;48.722;9.316;2023-03-01T13:21:03;6.90;91.20
70475;DHT22;57944;48.722;9.316;2023-03-01T13:23:36;7.00;91.50
70475;DHT22;57944;48.722;9.316;2023-03-01T13:26:14;7.00;91.30
70475;DHT22;57944;48.722;9.316;2023-03-01T13:28:55;7.00;91.40
70475;DHT22;57944;48.722;9.316;2023-03-01T13:31:57;6.90;91.50
70475;DHT22;57944;48.722;9.316;2023-03-01T13:34:47;7.00;91.70
70475;DHT22;57944;48.722;9.316;2023-03-01T13:37:24;7.10;91.50
70475;DHT22;57944;48.722;9.316;2023-03-01T13:40:04;7.20;91.20
70475;DHT22;57944;48.722;9.316;2023-03-01T13:43:27;7.20;91.10
70475;DHT22;57944;48.722;9.316;2023-03-01T13:46:00;7.20;91.20
70475;DHT22;57944;48.722;9.316;2023-03-01T13:48:38;7.30;91.50
70475;DHT22;57944;48.722;9.316;2023-03-01T13:51:12;7.40;91.30
70475;DHT22;57944;48.722;9.316;2023-03-01T13:53:45;7.40;91.20
70475;DHT22;57944;48.722;9.316;2023-03-01T13:56:19;7.40;91.90
70475;DHT22;57944;48.722;9.316;2023-03-01T13:58:56;7.40;91.80
70475;DHT22;57944;48.722;9.316;2023-03-01T14:01:32;7.50;91.00
70475;DHT22;57944;48.722;9.316;2023-03-01T14:04:19;7.50;90.80
70475;DHT22;57944;48.722;9.316;2023-03-01T14:07:09;7.40;91.30
70475;DHT22;57944;48.722;9.316;2023-03-01T14:09:41;7.50;91.10
70475;DHT22;57944;48.722;9.316;2023-03-01T14:12:35;7.50;91.10
70475;DHT22;57944;48.722;9.316;2023-03-01T14:15:19;7.60;91.20
70475;DHT22;57944;48.722;9.316;2023-03-01T14:18:01;7.60;91.30
70475;DHT22;57944;48.722;9.316;2023-03-01T14:20:40;7.80;90.90
70475;DHT22;57944;48.722;9.316;2023-03-01T14:23:20;7.90;91.00
70475;DHT22;57944;48.722;9.316;2023-03-01T14:25:55;7.90;91.10
70475;DHT22;57944;48.722;9.316;2023-03-01T14:28:28;7.80;90.60
70475;DHT22;57944;48.722;9.316;2023-03-01T14:31:01;7.80;90.90
70475;DHT22;57944;48.722;9.316;2023-03-01T14:33:33;7.80;91.20
70475;DHT22;57944;48.722;9.316;2023-03-01T14:36:12;7.90;91.10
70475;DHT22;57944;48.722;9.316;2023-03-01T14:38:47;7.80;91.20
70475;DHT22;57944;48.722;9.316;2023-03-01T14:41:19;7.90;91.20
70475;DHT22;57944;48.722;9.316;2023-03-01T14:43:54;7.80;91.10
70475;DHT22;57944;48.722;9.316;2023-03-01T14:46:32;7.80;91.30
70475;DHT22;57944;48.722;9.316;2023-03-01T14:49:09;7.70;91.30
70475;DHT22;57944;48.722;9.316;2023-03-01T14:51:45;7.70;91.20
70475;DHT22;57944;48.722;9.316;2023-03-01T14:54:25;7.70;91.30
70475;DHT22;57944;48.722;9.316;2023-03-01T14:56:59;7.60;91.40
70475;DHT22;57944;48.722;9.316;2023-03-01T14:59:33;7.70;91.40
70475;DHT22;57944;48.722;9.316;2023-03-01T15:02:03;7.70;91.40
70475;DHT22;57944;48.722;9.316;2023-03-01T15:04:34;7.70;91.40
70475;DHT22;57944;48.722;9.316;2023-03-01T15:07:04;7.60;91.60
70475;DHT22;57944;48.722;9.316;2023-03-01T15:09:39;7.70;91.70
70475;DHT22;57944;48.722;9.316;2023-03-01T15:12:35;7.70;91.70
70475;DHT22;57944;48.722;9.316;2023-03-01T15:15:26;7.80;91.70
70475;DHT22;57944;48.722;9.316;2023-03-01T15:18:03;7.80;91.60
70475;DHT22;57944;48.722;9.316;2023-03-01T15:20:41;7.70;91.60
70475;DHT22;57944;48.722;9.316;2023-03-01T15:23:21;7.60;91.60
70475;DHT22;57944;48.722;9.316;2023-03-01T15:25:56;7.60;92.00
70475;DHT22;57944;48.722;9.316;2023-03-01T15:28:30;7.50;91.60
70475;DHT22;57944;48.722;9.316;2023-03-01T15:31:20;7.50;91.90
70475;DHT22;57944;48.722;9.316;2023-03-01T15:33:52;7.60;91.80
70475;DHT22;57944;48.722;9.316;2023-03-01T15:36:41;7.40;91.70
70475;DHT22;57944;48.722;9.316;2023-03-01T15:39:32;7.40;91.90
70475;DHT22;57944;48.722;9.316;2023-03-01T15:42:11;7.40;92.20
70475;DHT22;57944;48.722;9.316;2023-03-01T15:44:43;7.30;91.90
70475;DHT22;57944;48.722;9.316;2023-03-01T15:47:26;7.40;91.90
70475;DHT22;57944;48.722;9.316;2023-03-01T15:49:59;7.30;91.80
70475;DHT22;57944;48.722;9.316;2023-03-01T15:52:34;7.20;92.00
70475;DHT22;57944;48.722;9.316;2023-03-01T15:55:16;7.10;92.00
70475;DHT22;57944;48.722;9.316;2023-03-01T15:57:57;7.10;92.00
70475;DHT22;57944;48.722;9.316;2023-03-01T16:00:29;7.10;92.00
70475;DHT22;57944;48.722;9.316;2023-03-01T16:03:00;7.00;91.90
70475;DHT22;57944;48.722;9.316;2023-03-01T16:05:31;7.00;92.00
70475;DHT22;57944;48.722;9.316;2023-03-01T16:08:05;7.00;92.10
70475;DHT22;57944;48.722;9.316;2023-03-01T16:10:36;6.90;92.00
70475;DHT22;57944;48.722;9.316;2023-03-01T16:13:09;6.90;92.30
70475;DHT22;57944;48.722;9.316;2023-03-01T16:15:40;6.80;92.30
70475;DHT22;57944;48.722;9.316;2023-03-01T16:18:10;6.70;92.50
70475;DHT22;57944;48.722;9.316;2023-03-01T16:20:41;6.60;92.60
70475;DHT22;57944;48.722;9.316;2023-03-01T16:23:11;6.60;92.80
70475;DHT22;57944;48.722;9.316;2023-03-01T16:25:43;6.60;92.80
70475;DHT22;57944;48.722;9.316;2023-03-01T16:28:16;6.50;92.90
70475;DHT22;57944;48.722;9.316;2023-03-01T16:30:47;6.40;93.00
70475;DHT22;57944;48.722;9.316;2023-03-01T16:33:18;6.30;92.90
70475;DHT22;57944;48.722;9.316;2023-03-01T16:36:00;6.30;92.90
70475;DHT22;57944;48.722;9.316;2023-03-01T16:38:31;6.20;93.20